Time;durP1;ratioP1;P1;durP2;ratioP2;P2;SDS_P1;SDS_P2;PMS_P1;PMS_P2;Temp;Humidity;BMP_temperature;BMP_pressure;BME280_temperature;BME280_humidity;BME280_pressure;Samples;Min_cycle;Max_cycle;Signal;HPM_P1;HPM_P2
2022/01/06 00:01:29;;;;;;;9.95;3.20;;;5.30;99.90;;;4.92;100.00;100803.72;5184326;28;20056;-72
2022/01/06 00:04:01;;;;;;;11.02;3.13;;;5.30;99.90;;;4.94;100.00;100796.94;5184255;28;20056;-72
2022/01/06 00:06:37;;;;;;;13.80;4.18;;;5.20;99.90;;;4.92;100.00;100803.72;5182508;28;20045;-72
2022/01/06 00:09:15;;;;;;;13.77;3.83;;;5.30;99.90;;;4.90;100.00;100797.59;5184423;28;20081;-72
2022/01/06 00:11:47;;;;;;;7.22;3.10;;;5.20;99.90;;;4.92;100.00;100806.31;5187247;28;20045;-72
2022/01/06 00:14:24;;;;;;;16.00;3.75;;;5.20;99.90;;;4.92;100.00;100808.91;5184103;28;20046;-71
2022/01/06 00:17:16;;;;;;;11.13;4.07;;;5.20;99.90;;;4.96;100.00;100808.28;5187019;28;20077;-72
2022/01/06 00:23:23;;;;;;;;;;;5.30;99.90;;;4.95;100.00;100814.22;5125940;29;20055;-72
2022/01/06 00:25:58;;;;;;;10.55;3.60;;;5.20;99.90;;;4.92;100.00;100823.50;5188460;28;20404;-71
2022/01/06 00:28:30;;;;;;;12.02;3.22;;;5.20;99.90;;;4.91;100.00;100827.78;5188442;28;20050;-73
2022/01/06 00:31:03;;;;;;;11.25;4.18;;;5.30;99.90;;;4.90;100.00;100821.72;5190494;28;20056;-72
2022/01/06 00:33:36;;;;;;;13.88;4.43;;;5.20;99.90;;;4.91;100.00;100825.19;5185117;28;20046;-72
2022/01/06 00:36:08;;;;;;;15.93;4.03;;;5.20;99.90;;;4.86;100.00;100834.38;5208760;28;20409;-72
2022/01/06 00:38:40;;;;;;;17.25;4.63;;;5.20;99.90;;;4.87;100.00;100836.16;5208780;28;20053;-72
2022/01/06 00:41:13;;;;;;;10.32;4.22;;;5.20;99.90;;;4.86;100.00;100849.88;5208502;28;20069;-72
2022/01/06 00:43:45;;;;;;;11.02;4.30;;;5.20;99.90;;;4.82;100.00;100842.72;5208712;28;20049;-72
2022/01/06 00:46:17;;;;;;;10.65;4.05;;;5.20;99.90;;;4.83;100.00;100849.69;5208653;28;20466;-72
2022/01/06 00:48:49;;;;;;;15.43;4.25;;;5.20;99.90;;;4.82;100.00;100853.94;5208453;28;20049;-72
2022/01/06 00:51:21;;;;;;;10.77;4.05;;;5.20;99.90;;;4.81;100.00;100856.44;5211043;28;20060;-72
2022/01/06 00:53:53;;;;;;;15.30;4.00;;;5.10;99.90;;;4.83;100.00;100862.63;5208186;28;20053;-72
2022/01/06 00:56:26;;;;;;;14.82;5.03;;;5.10;99.90;;;4.84;100.00;100861.81;5208273;28;20045;-72
2022/01/06 00:58:58;;;;;;;11.85;4.30;;;5.20;99.90;;;4.85;100.00;100859.31;5208219;28;20057;-72
2022/01/06 01:01:31;;;;;;;14.98;4.32;;;5.20;99.90;;;4.86;100.00;100863.66;5208329;28;20045;-72
2022/01/06 01:04:03;;;;;;;15.93;4.38;;;5.20;99.90;;;4.86;100.00;100875.69;5208280;28;20045;-72
2022/01/06 01:06:35;;;;;;;15.80;4.00;;;5.20;99.90;;;4.88;100.00;100889.59;5208491;28;20041;-73
2022/01/06 01:09:07;;;;;;;10.20;3.72;;;5.10;99.90;;;4.84;100.00;100883.38;5210462;28;20045;-72
2022/01/06 01:11:40;;;;;;;9.77;3.70;;;5.10;99.90;;;4.83;100.00;100886.75;5207816;28;20053;-72
2022/01/06 01:14:18;;;;;;;10.60;3.00;;;5.10;99.90;;;4.84;100.00;100892.81;5207979;28;20057;-72
2022/01/06 01:16:55;;;;;;;10.95;3.30;;;5.10;99.90;;;4.82;100.00;100889.22;5207923;28;20087;-72
2022/01/06 01:19:29;;;;;;;10.18;3.25;;;5.10;99.90;;;4.81;100.00;100887.44;5208132;28;20057;-72
2022/01/06 01:22:02;;;;;;;12.25;3.65;;;5.10;99.90;;;4.83;100.00;100891.03;5207817;28;20046;-72
2022/01/06 01:24:34;;;;;;;10.95;2.95;;;5.10;99.90;;;4.79;100.00;100892.53;5207785;28;20056;-72
2022/01/06 01:27:08;;;;;;;14.65;3.92;;;5.10;99.90;;;4.77;100.00;100890.66;5207249;28;20041;-72
2022/01/06 01:29:51;;;;;;;10.60;2.80;;;5.10;99.90;;;4.74;100.00;100886.19;5209679;28;20056;-72
2022/01/06 01:32:28;;;;;;;10.43;2.72;;;5.00;99.90;;;4.71;100.00;100882.56;5207727;28;20487;-72
2022/01/06 01:35:02;;;;;;;10.73;2.47;;;5.00;99.90;;;4.69;100.00;100882.44;5207498;28;20534;-72
2022/01/06 01:37:35;;;;;;;7.38;2.58;;;5.00;99.90;;;4.67;100.00;100884.03;5207560;28;20491;-72
2022/01/06 01:40:09;;;;;;;11.90;2.58;;;5.00;99.90;;;4.59;100.00;100881.00;5207535;28;20055;-72
2022/01/06 01:42:43;;;;;;;9.55;2.53;;;4.90;99.90;;;4.56;100.00;100888.59;5207625;28;20666;-72
2022/01/06 01:45:16;;;;;;;8.73;2.58;;;4.90;99.90;;;4.53;100.00;100898.72;5207581;28;20391;-72
2022/01/06 01:47:48;;;;;;;11.18;2.78;;;4.80;99.90;;;4.56;100.00;100896.34;5209698;28;20095;-72
2022/01/06 01:50:21;;;;;;;8.55;2.40;;;4.90;99.90;;;4.55;100.00;100896.22;5207547;28;20053;-72
2022/01/06 01:52:57;;;;;;;13.25;2.53;;;4.80;99.90;;;4.57;100.00;100908.44;5207467;28;20132;-72
2022/01/06 01:55:32;;;;;;;8.50;2.40;;;4.90;99.90;;;4.59;100.00;100904.25;5206912;28;20529;-73
2022/01/06 01:58:06;;;;;;;12.13;2.83;;;4.90;99.90;;;4.57;100.00;100913.59;5201963;28;20124;-72
2022/01/06 02:00:38;;;;;;;8.35;2.53;;;4.90;99.90;;;4.55;100.00;100919.44;5186218;28;20049;-72
2022/01/06 02:03:10;;;;;;;7.20;2.13;;;4.90;99.90;;;4.56;100.00;100917.00;5186792;28;20475;-73
2022/01/06 02:05:42;;;;;;;6.80;1.70;;;4.80;99.90;;;4.56;100.00;100917.00;5189618;28;20509;-73
2022/01/06 02:08:14;;;;;;;5.57;2.25;;;4.90;99.90;;;4.59;100.00;100909.41;5186576;28;20124;-72
2022/01/06 02:10:46;;;;;;;18.45;2.42;;;4.90;99.90;;;4.56;100.00;100905.75;5186630;28;20168;-72
2022/01/06 02:13:23;;;;;;;6.72;1.70;;;4.80;99.90;;;4.53;100.00;100911.63;5186528;28;20407;-75
2022/01/06 02:15:57;;;;;;;7.07;1.80;;;4.80;99.90;;;4.53;100.00;100914.19;5186251;28;20189;-72
2022/01/06 02:18:30;;;;;;;8.77;2.28;;;4.80;99.90;;;4.54;100.00;100928.88;5186642;28;20065;-72
2022/01/06 02:21:03;;;;;;;14.20;2.28;;;4.80;99.90;;;4.54;100.00;100928.00;5185961;28;20485;-72
2022/01/06 02:23:35;;;;;;;6.53;1.77;;;4.80;99.90;;;4.55;100.00;100930.66;5186238;28;20053;-72
2022/01/06 02:26:07;;;;;;;10.70;1.90;;;4.80;99.90;;;4.55;100.00;100920.34;5188133;28;20050;-72
2022/01/06 02:28:40;;;;;;;11.18;1.83;;;4.80;99.90;;;4.51;100.00;100933.88;5186363;28;20145;-72
2022/01/06 02:31:12;;;;;;;6.45;1.80;;;4.80;99.90;;;4.49;100.00;100931.97;5185720;28;20053;-72
2022/01/06 02:33:44;;;;;;;9.57;1.90;;;4.80;99.90;;;4.48;100.00;100933.69;5186008;28;20057;-72
2022/01/06 02:36:17;;;;;;;11.30;1.63;;;4.80;99.90;;;4.49;100.00;100939.72;5185617;28;20099;-72
2022/01/06 02:38:49;;;;;;;8.55;1.75;;;4.80;99.90;;;4.47;100.00;100937.06;5184653;28;20060;-72
2022/01/06 02:41:21;;;;;;;3.28;1.30;;;4.80;99.90;;;4.42;100.00;100933.31;5185635;28;20056;-72
2022/01/06 02:43:55;;;;;;;8.07;2.17;;;4.70;99.90;;;4.42;100.00;100935.00;5188039;28;20046;-72
2022/01/06 02:46:27;;;;;;;7.28;1.80;;;4.80;99.90;;;4.44;100.00;100934.31;5185734;28;20042;-72
2022/01/06 02:48:59;;;;;;;9.70;1.77;;;4.70;99.90;;;4.46;100.00;100936.97;5185684;28;20054;-73
2022/01/06 02:51:32;;;;;;;5.90;1.60;;;4.70;99.90;;;4.46;100.00;100939.56;5185365;28;20060;-72
2022/01/06 02:54:04;;;;;;;9.65;2.10;;;4.70;99.90;;;4.51;100.00;100949.38;5185816;28;20050;-72
2022/01/06 02:56:38;;;;;;;11.25;1.83;;;4.80;99.90;;;4.51;100.00;100941.63;5185606;28;20042;-72
2022/01/06 02:59:10;;;;;;;6.35;1.52;;;4.70;99.90;;;4.52;100.00;100940.81;5185648;28;20054;-72
2022/01/06 03:01:44;;;;;;;6.70;2.28;;;4.80;99.90;;;4.52;100.00;100947.69;5185653;28;20049;-72
2022/01/06 03:04:16;;;;;;;13.15;1.98;;;4.80;99.90;;;4.54;100.00;100951.22;5188542;28;20056;-72
2022/01/06 03:06:49;;;;;;;13.77;2.00;;;4.80;99.90;;;4.56;100.00;100945.38;5185541;28;20138;-72
2022/01/06 03:09:26;;;;;;;7.97;1.60;;;4.80;99.90;;;4.56;100.00;100957.38;5185852;28;20060;-72
2022/01/06 03:11:58;;;;;;;8.45;1.88;;;4.80;99.90;;;4.56;100.00;100963.47;5185433;28;20053;-72
2022/01/06 03:14:32;;;;;;;8.65;1.73;;;4.80;99.90;;;4.59;100.00;100963.63;5185141;28;20058;-72
2022/01/06 03:17:04;;;;;;;11.35;2.45;;;4.90;99.90;;;4.62;100.00;100957.75;5185425;28;20045;-72
2022/01/06 03:19:36;;;;;;;10.55;2.05;;;4.90;99.90;;;4.63;100.00;100960.44;5185642;28;20513;-72
2022/01/06 03:22:10;;;;;;;12.27;2.10;;;4.90;99.90;;;4.65;100.00;100955.38;5187178;28;20046;-72
2022/01/06 03:24:42;;;;;;;13.07;2.15;;;4.90;99.90;;;4.62;100.00;100961.22;5185405;28;20410;-72
2022/01/06 03:27:14;;;;;;;9.90;1.98;;;4.90;99.90;;;4.62;100.00;100958.63;5185272;28;20493;-72
2022/01/06 03:29:47;;;;;;;13.38;1.92;;;4.90;99.90;;;4.61;100.00;100964.59;5185283;28;20586;-72
2022/01/06 03:32:21;;;;;;;10.38;2.20;;;4.90;99.90;;;4.62;100.00;100974.13;5185452;28;20060;-72
2022/01/06 03:34:53;;;;;;;8.13;2.03;;;4.90;99.90;;;4.62;100.00;100979.28;5184935;28;20049;-72
2022/01/06 03:37:27;;;;;;;9.70;2.22;;;4.90;99.90;;;4.65;100.00;100973.44;5185311;28;20479;-72
2022/01/06 03:40:04;;;;;;;9.65;1.63;;;4.90;99.90;;;4.68;100.00;100977.91;5184770;28;20053;-72
2022/01/06 03:42:38;;;;;;;10.10;2.05;;;5.00;99.90;;;4.67;99.95;100976.13;5187165;28;20046;-72
2022/01/06 03:45:14;;;;;;;8.85;2.60;;;5.00;99.90;;;4.68;100.00;100977.91;5184942;28;20052;-72
2022/01/06 03:47:46;;;;;;;6.95;1.70;;;5.00;99.90;;;4.68;100.00;100972.72;5184817;28;20045;-72
2022/01/06 03:50:19;;;;;;;11.68;1.55;;;5.00;99.90;;;4.66;100.00;100976.91;5184786;28;20046;-72
2022/01/06 03:52:53;;;;;;;12.00;2.00;;;5.00;99.90;;;4.70;100.00;100987.53;5184827;28;20045;-72
2022/01/06 03:55:25;;;;;;;9.50;1.67;;;5.00;99.90;;;4.72;100.00;100987.63;5184337;28;20056;-72
2022/01/06 03:57:57;;;;;;;13.13;1.77;;;5.00;99.90;;;4.73;100.00;100992.00;5184356;28;20054;-72
2022/01/06 04:00:29;;;;;;;9.10;1.98;;;5.00;99.90;;;4.75;99.97;100990.38;5187030;28;20067;-72
2022/01/06 04:03:01;;;;;;;4.35;1.60;;;5.00;99.90;;;4.75;99.77;100986.09;5184649;28;20056;-72
2022/01/06 04:05:33;;;;;;;6.80;2.15;;;5.00;99.90;;;4.79;99.17;100997.53;5184167;28;20056;-72
2022/01/06 04:08:06;;;;;;;6.18;2.05;;;5.00;99.90;;;4.76;99.29;100992.16;5184472;28;20099;-72
2022/01/06 04:10:38;;;;;;;8.30;1.85;;;5.00;99.90;;;4.74;99.36;100998.94;5184272;28;20049;-72
2022/01/06 04:13:10;;;;;;;15.23;1.85;;;5.00;99.90;;;4.76;99.23;100997.31;5184498;28;20056;-72
2022/01/06 04:15:44;;;;;;;9.85;1.60;;;5.10;99.90;;;4.77;99.25;101004.31;5184537;28;20056;-72
2022/01/06 04:18:16;;;;;;;13.85;2.55;;;5.10;99.90;;;4.76;99.17;101010.25;5184573;28;20046;-72
2022/01/06 04:20:48;;;;;;;8.05;1.52;;;5.10;99.90;;;4.77;99.01;101010.34;5186581;28;20054;-72
2022/01/06 04:23:21;;;;;;;11.63;1.80;;;5.10;99.90;;;4.76;98.97;101016.31;5184244;28;20050;-72
2022/01/06 04:25:53;;;;;;;7.13;1.75;;;5.10;99.90;;;4.73;98.35;101022.97;5184483;28;20049;-73
2022/01/06 04:28:25;;;;;;;11.63;1.70;;;5.10;99.90;;;4.70;98.34;101022.81;5184425;28;20048;-72
2022/01/06 04:30:58;;;;;;;9.85;1.90;;;5.00;99.90;;;4.70;98.71;101022.81;5184430;28;20050;-72
2022/01/06 04:33:33;;;;;;;7.55;1.95;;;5.00;99.90;;;4.69;98.55;101032.22;5184248;28;20528;-72
2022/01/06 04:36:06;;;;;;;16.55;2.50;;;5.00;99.90;;;4.68;98.11;101029.53;5184214;28;20050;-72
2022/01/06 04:38:39;;;;;;;12.70;2.13;;;5.00;99.90;;;4.66;98.17;101039.78;5187792;28;20050;-72
2022/01/06 04:41:11;;;;;;;9.55;2.15;;;5.00;99.90;;;4.67;98.23;101043.25;5184539;28;20050;-72
2022/01/06 04:43:43;;;;;;;6.72;2.15;;;5.00;99.90;;;4.68;98.03;101045.03;5184230;28;20406;-72
2022/01/06 04:46:15;;;;;;;13.90;2.20;;;5.00;99.90;;;4.68;97.74;101039.88;5184226;28;20491;-72
2022/01/06 04:48:47;;;;;;;6.88;2.03;;;5.00;99.90;;;4.69;98.27;101046.81;5184152;28;20141;-72
2022/01/06 04:51:19;;;;;;;16.95;2.75;;;5.00;99.90;;;4.70;98.21;101048.63;5184196;28;20050;-72
2022/01/06 04:53:53;;;;;;;9.80;2.15;;;5.00;99.90;;;4.70;98.19;101051.22;5184173;28;20164;-72
2022/01/06 04:56:25;;;;;;;12.38;2.40;;;5.00;99.90;;;4.74;97.92;101055.75;5184227;28;20057;-72
2022/01/06 04:58:57;;;;;;;11.52;2.20;;;5.00;99.90;;;4.71;97.99;101058.16;5186170;28;20050;-72
2022/01/06 05:01:29;;;;;;;9.38;1.70;;;5.00;99.90;;;4.73;98.21;101051.38;5184355;28;20050;-72
2022/01/06 05:04:01;;;;;;;8.77;2.03;;;5.00;99.90;;;4.73;98.11;101053.97;5187682;28;20403;-72
2022/01/06 05:06:33;;;;;;;9.32;3.10;;;5.00;99.90;;;4.68;97.86;101061.41;5187757;28;20050;-72
2022/01/06 05:09:06;;;;;;;8.27;2.15;;;5.00;99.90;;;4.65;98.06;101052.59;5187875;28;20046;-72
2022/01/06 05:11:38;;;;;;;6.18;1.45;;;4.90;99.90;;;4.65;97.89;101062.94;5187888;28;20050;-72
2022/01/06 05:14:10;;;;;;;10.95;2.13;;;5.00;99.90;;;4.65;98.04;101075.84;5187322;28;20056;-72
2022/01/06 05:16:42;;;;;;;11.38;2.00;;;4.90;99.90;;;4.62;98.42;101074.84;5190122;28;20049;-72
2022/01/06 05:19:14;;;;;;;6.82;1.95;;;4.90;99.90;;;4.61;98.08;101085.97;5187560;28;20046;-72
2022/01/06 05:21:46;;;;;;;6.15;1.65;;;4.90;99.90;;;4.61;97.53;101082.50;5187655;28;20479;-72
2022/01/06 05:24:19;;;;;;;6.95;1.80;;;4.90;99.90;;;4.58;97.94;101092.66;5187633;28;20056;-72
2022/01/06 05:26:54;;;;;;;8.18;2.35;;;4.90;99.90;;;4.54;97.26;101091.53;5187597;28;20053;-72
2022/01/06 05:29:26;;;;;;;11.65;2.17;;;4.80;99.90;;;4.52;97.42;101084.50;5187729;28;20046;-72
2022/01/06 05:31:58;;;;;;;9.63;1.88;;;4.80;99.90;;;4.49;97.46;101092.94;5187485;28;20061;-72
2022/01/06 05:34:30;;;;;;;7.45;2.08;;;4.80;99.90;;;4.48;97.58;101090.25;5187070;28;20045;-72
2022/01/06 05:37:02;;;;;;;11.70;2.10;;;4.70;99.90;;;4.47;97.73;101094.53;5189330;28;20057;-72
2022/01/06 05:39:35;;;;;;;11.90;1.95;;;4.80;99.90;;;4.46;97.36;101103.06;5187034;28;20050;-72
2022/01/06 05:42:08;;;;;;;11.10;2.25;;;4.70;99.90;;;4.47;97.62;101107.44;5186873;28;20050;-72
2022/01/06 05:44:41;;;;;;;8.75;1.85;;;4.70;99.90;;;4.45;97.34;101106.47;5186924;28;20049;-72
2022/01/06 05:47:13;;;;;;;13.73;2.55;;;4.70;99.90;;;4.43;97.18;101108.03;5187214;28;20402;-72
2022/01/06 05:49:45;;;;;;;7.95;1.90;;;4.70;99.90;;;4.41;97.45;101122.53;5213385;22;20409;-70
2022/01/06 05:52:17;;;;;;;11.20;1.90;;;4.70;99.90;;;4.42;97.75;101124.31;5206293;28;20052;-70
2022/01/06 05:54:51;;;;;;;11.27;2.72;;;4.70;99.90;;;4.42;97.70;101123.44;5206320;28;20049;-70
2022/01/06 05:57:23;;;;;;;10.00;2.53;;;4.70;99.90;;;4.43;97.64;101123.50;5207085;28;20045;-70
2022/01/06 05:59:55;;;;;;;15.57;3.65;;;4.70;99.90;;;4.45;97.59;101128.81;5206560;28;20137;-69
2022/01/06 06:02:27;;;;;;;10.98;2.45;;;4.70;99.90;;;4.43;97.46;101126.09;5206634;28;20053;-70
2022/01/06 06:04:59;;;;;;;8.60;1.75;;;4.70;99.90;;;4.42;97.60;101134.63;5205916;28;20049;-70
2022/01/06 06:07:32;;;;;;;12.27;3.03;;;4.70;99.90;;;4.43;97.42;101141.59;5206448;28;20045;-70
2022/01/06 06:10:06;;;;;;;8.65;2.17;;;4.70;99.90;;;4.45;97.60;101139.13;5206365;28;20413;-70
2022/01/06 06:12:38;;;;;;;17.83;3.08;;;4.80;99.90;;;4.46;97.20;101140.91;5206812;28;20076;-70
2022/01/06 06:15:11;;;;;;;8.05;1.98;;;4.70;99.90;;;4.46;96.98;101146.97;5206105;28;20049;-70
2022/01/06 06:17:43;;;;;;;7.72;2.10;;;4.70;99.90;;;4.46;97.17;101149.53;5206330;28;20482;-70
2022/01/06 06:20:16;;;;;;;9.85;2.10;;;4.70;99.90;;;4.46;97.12;101162.44;5206384;28;20050;-70
2022/01/06 06:22:48;;;;;;;13.85;2.53;;;4.70;99.90;;;4.44;97.11;101169.22;5206499;28;20049;-70
2022/01/06 06:25:21;;;;;;;12.93;3.28;;;4.70;99.90;;;4.44;97.09;101166.63;5205880;28;20052;-70
2022/01/06 06:27:53;;;;;;;13.57;3.30;;;4.70;99.90;;;4.42;97.20;101173.38;5206354;28;20433;-70
2022/01/06 06:30:26;;;;;;;16.75;2.80;;;4.70;99.90;;;4.41;96.79;101176.75;5206359;28;20049;-70
2022/01/06 06:33:00;;;;;;;11.80;2.55;;;4.70;99.90;;;4.39;96.71;101178.34;5205761;28;20045;-69
2022/01/06 06:35:32;;;;;;;7.90;2.22;;;4.60;99.90;;;4.37;96.41;101185.09;5205877;28;20057;-69
2022/01/06 06:38:04;;;;;;;12.15;2.58;;;4.60;99.90;;;4.34;97.03;101182.31;5205866;28;20055;-70
2022/01/06 06:40:37;;;;;;;8.57;2.60;;;4.60;99.90;;;4.33;96.83;101175.34;5206134;28;20056;-70
2022/01/06 06:43:13;;;;;;;6.30;1.98;;;4.50;99.90;;;4.31;96.71;101183.00;5205903;28;20046;-69
2022/01/06 06:45:45;;;;;;;8.00;2.03;;;4.50;99.90;;;4.30;96.88;101180.28;5205222;28;20056;-70
2022/01/06 06:48:17;;;;;;;10.38;2.97;;;4.50;99.90;;;4.26;96.95;101176.63;5205805;28;20051;-70
2022/01/06 06:50:49;;;;;;;12.07;2.42;;;4.50;99.90;;;4.25;96.73;101187.75;5205829;28;20135;-70
2022/01/06 06:53:21;;;;;;;15.30;2.70;;;4.50;99.90;;;4.25;96.98;101184.28;5205655;28;20049;-70
2022/01/06 06:55:55;;;;;;;12.20;2.03;;;4.50;99.90;;;4.25;97.10;101194.59;5205132;28;20065;-70
2022/01/06 06:58:27;;;;;;;13.40;2.08;;;4.50;99.90;;;4.25;97.29;101195.50;5205057;28;20045;-69
2022/01/06 07:00:59;;;;;;;7.72;2.00;;;4.50;99.90;;;4.25;97.33;101194.59;5205853;28;20053;-70
2022/01/06 07:03:31;;;;;;;12.50;2.25;;;4.40;99.90;;;4.27;97.51;101204.22;5205517;28;20049;-70
2022/01/06 07:06:03;;;;;;;8.38;2.50;;;4.40;99.90;;;4.26;97.50;101205.03;5205030;28;20049;-69
2022/01/06 07:08:35;;;;;;;7.70;2.15;;;4.40;99.90;;;4.26;97.31;101209.28;5205549;28;20060;-69
2022/01/06 07:11:09;;;;;;;12.85;3.03;;;4.40;99.90;;;4.24;97.40;101221.22;5205426;28;20060;-69
2022/01/06 07:13:41;;;;;;;9.35;2.60;;;4.40;99.90;;;4.21;97.52;101221.00;5205261;28;20059;-70
2022/01/06 07:16:13;;;;;;;11.88;2.78;;;4.40;99.90;;;4.19;97.79;101232.91;5205325;28;20409;-69
2022/01/06 07:18:45;;;;;;;8.20;2.45;;;4.40;99.90;;;4.15;97.85;101236.94;5205151;28;20050;-69
2022/01/06 07:21:17;;;;;;;8.25;2.40;;;4.40;99.90;;;4.12;97.56;101241.94;5205197;28;20079;-70
2022/01/06 07:23:49;;;;;;;10.00;2.65;;;4.30;99.90;;;4.08;97.32;101245.97;5205030;28;20434;-69
2022/01/06 07:26:22;;;;;;;10.30;2.95;;;4.30;99.90;;;4.08;98.06;101245.06;5205201;28;20050;-69
2022/01/06 07:28:54;;;;;;;10.18;2.55;;;4.30;99.90;;;4.07;97.82;101248.44;5205053;28;20051;-69
2022/01/06 07:31:26;;;;;;;9.93;3.55;;;4.30;99.90;;;4.07;98.08;101253.59;5204623;28;20140;-69
2022/01/06 07:33:58;;;;;;;9.55;2.20;;;4.30;99.90;;;4.06;98.14;101251.81;5204710;28;20049;-70
2022/01/06 07:36:30;;;;;;;12.73;2.60;;;4.30;99.90;;;4.04;98.40;101253.38;5204750;28;20059;-70
2022/01/06 07:39:03;;;;;;;10.85;2.22;;;4.30;99.90;;;4.03;98.47;101260.22;5205081;28;20052;-69
2022/01/06 07:41:36;;;;;;;11.98;2.65;;;4.30;99.90;;;4.01;98.43;101264.41;5204982;28;20140;-69
2022/01/06 07:44:08;;;;;;;6.70;2.50;;;4.20;99.90;;;4.00;98.29;101262.63;5204359;28;20056;-69
2022/01/06 07:46:42;;;;;;;9.48;2.92;;;4.20;99.90;;;4.00;98.41;101266.88;5204900;28;20051;-69
2022/01/06 07:49:15;;;;;;;13.52;2.53;;;4.20;99.90;;;3.98;98.55;101274.53;5204801;28;20140;-69
2022/01/06 07:51:47;;;;;;;14.60;2.75;;;4.20;99.90;;;3.98;98.67;101279.69;5204946;28;20402;-71
2022/01/06 07:54:19;;;;;;;16.23;3.45;;;4.20;99.90;;;4.00;98.86;101284.94;5204423;28;20453;-72
2022/01/06 07:56:52;;;;;;;9.88;3.10;;;4.20;99.90;;;4.01;98.45;101290.19;5205229;28;20049;-73
2022/01/06 07:59:24;;;;;;;8.90;2.33;;;4.20;99.90;;;4.04;98.32;101304.97;5205160;28;20049;-69
2022/01/06 08:01:56;;;;;;;11.85;2.70;;;4.20;99.90;;;4.02;98.46;101301.41;5204911;28;20060;-70
2022/01/06 08:04:28;;;;;;;11.18;2.80;;;4.20;99.90;;;4.02;98.24;101307.47;5204480;28;20045;-70
2022/01/06 08:07:00;;;;;;;6.55;2.10;;;4.20;99.90;;;4.02;98.13;101301.41;5204874;28;20512;-70
2022/01/06 08:09:32;;;;;;;8.45;2.40;;;4.20;99.90;;;3.98;97.86;101305.47;5205249;28;20041;-70
2022/01/06 08:12:06;;;;;;;13.30;3.50;;;4.20;99.90;;;3.97;97.88;101313.09;5205024;28;20049;-70
2022/01/06 08:14:38;;;;;;;12.95;2.70;;;4.20;99.90;;;3.94;97.66;101308.63;5205112;28;20055;-70
2022/01/06 08:17:10;;;;;;;8.90;2.70;;;4.20;99.90;;;3.92;97.64;101312.78;5205125;28;20049;-70
2022/01/06 08:19:43;;;;;;;10.32;2.50;;;4.20;99.90;;;3.92;97.42;101309.31;5204979;28;20089;-70
2022/01/06 08:22:15;;;;;;;14.95;3.20;;;4.10;99.90;;;3.93;97.77;101317.16;5205131;28;20056;-70
2022/01/06 08:24:48;;;;;;;6.78;2.50;;;4.10;99.90;;;3.95;97.46;101320.72;5204962;28;20049;-70
2022/01/06 08:27:23;;;;;;;13.05;3.22;;;4.20;99.90;;;3.99;97.37;101325.31;5205092;28;20140;-70
2022/01/06 08:29:55;;;;;;;11.18;3.50;;;4.20;99.90;;;4.00;97.94;101319.38;5205124;28;20049;-71
2022/01/06 08:32:27;;;;;;;13.02;4.00;;;4.20;99.90;;;4.05;98.24;101325.75;5205105;28;20045;-70
2022/01/06 08:34:59;;;;;;;14.73;3.85;;;4.20;99.90;;;4.12;98.13;101324.50;5204799;28;20049;-70
2022/01/06 08:37:31;;;;;;;11.65;3.88;;;4.30;99.90;;;4.18;98.04;101321.44;5206830;28;20049;-70
2022/01/06 08:40:04;;;;;;;13.80;4.20;;;4.30;99.90;;;4.23;98.32;101332.94;5209026;28;20484;-70
2022/01/06 08:42:38;;;;;;;8.05;3.30;;;4.40;99.90;;;4.28;98.37;101337.63;5209046;28;20503;-70
2022/01/06 08:45:10;;;;;;;12.25;4.38;;;4.40;99.90;;;4.34;98.17;101344.91;5208789;28;20433;-71
2022/01/06 08:47:42;;;;;;;14.90;4.07;;;4.50;99.90;;;4.38;98.30;101343.44;5209020;28;20049;-70
2022/01/06 08:50:16;;;;;;;12.82;4.25;;;4.50;99.90;;;4.42;98.43;101348.00;5208757;28;20156;-70
2022/01/06 08:52:48;;;;;;;9.93;3.70;;;4.60;99.90;;;4.47;98.44;101349.22;5209026;28;20056;-70
2022/01/06 08:55:20;;;;;;;12.48;3.92;;;4.60;99.90;;;4.52;98.52;101348.75;5208689;28;20054;-70
2022/01/06 08:57:54;;;;;;;11.05;3.50;;;4.60;99.90;;;4.55;98.08;101353.22;5208709;28;20052;-70
2022/01/06 09:00:27;;;;;;;13.30;3.88;;;4.70;99.90;;;4.59;98.18;101356.13;5208584;28;20049;-71
2022/01/06 09:02:59;;;;;;;15.40;4.50;;;4.70;99.90;;;4.66;98.38;101361.69;5208547;28;20053;-70
2022/01/06 09:05:31;;;;;;;15.27;4.20;;;4.70;99.90;;;4.74;97.94;101361.41;5208519;28;20049;-70
2022/01/06 09:08:03;;;;;;;13.40;4.30;;;4.80;99.90;;;4.83;98.37;101362.03;5208675;28;20046;-70
2022/01/06 09:10:36;;;;;;;14.13;4.18;;;4.90;99.90;;;4.91;98.44;101370.28;5208546;28;20506;-70
2022/01/06 09:13:09;;;;;;;14.98;4.88;;;5.00;99.90;;;5.00;98.07;101372.59;5208408;28;20049;-71
2022/01/06 09:15:41;;;;;;;14.60;4.43;;;5.10;99.90;;;5.09;97.99;101368.94;5208248;28;20059;-71
2022/01/06 09:18:13;;;;;;;12.85;4.93;;;5.10;99.90;;;5.17;97.71;101370.31;5208494;28;20049;-71
2022/01/06 09:20:45;;;;;;;13.35;4.07;;;5.20;99.90;;;5.24;97.66;101368.13;5208368;28;20056;-73
2022/01/06 09:23:17;;;;;;;15.23;4.80;;;5.30;99.90;;;5.25;97.28;101368.22;5208165;28;20046;-70
2022/01/06 09:25:49;;;;;;;14.02;4.20;;;5.30;99.90;;;5.26;97.55;101369.13;5207778;28;20055;-70
2022/01/06 09:28:22;;;;;;;12.75;4.60;;;5.30;99.90;;;5.31;97.12;101372.91;5208209;28;20054;-70
2022/01/06 09:30:55;;;;;;;19.10;4.53;;;5.30;99.90;;;5.35;96.75;101369.75;5208434;28;20046;-69
2022/01/06 09:33:27;;;;;;;16.88;4.00;;;5.40;99.90;;;5.38;96.66;101375.97;5207932;28;20050;-72
2022/01/06 09:36:00;;;;;;;17.23;4.78;;;5.40;99.90;;;5.44;96.81;101371.22;5207808;28;20156;-70
2022/01/06 09:38:32;;;;;;;14.90;4.03;;;5.50;99.90;;;5.56;96.50;101375.38;5207882;28;20402;-70
2022/01/06 09:41:06;;;;;;;11.90;4.88;;;5.50;99.90;;;5.61;95.54;101380.06;5208127;28;20398;-70
2022/01/06 09:43:41;;;;;;;18.10;4.80;;;5.60;99.90;;;5.67;95.09;101395.97;5207999;28;20049;-70
2022/01/06 09:46:12;;;;;;;15.85;4.25;;;5.70;99.90;;;5.70;94.92;101390.09;5207986;28;20049;-71
2022/01/06 09:48:45;;;;;;;17.25;4.50;;;5.70;99.90;;;5.71;94.86;101387.59;5207389;28;20052;-71
2022/01/06 09:51:18;;;;;;;12.15;4.75;;;5.70;99.90;;;5.72;94.63;101389.38;5207831;28;20045;-71
2022/01/06 09:53:52;;;;;;;14.52;4.53;;;5.70;99.90;;;5.70;94.32;101388.41;5207473;28;20055;-70
2022/01/06 09:56:26;;;;;;;16.58;4.63;;;5.70;99.90;;;5.72;94.09;101386.78;5207759;28;20477;-69
2022/01/06 09:59:00;;;;;;;18.35;4.75;;;5.70;99.90;;;5.72;94.34;101389.38;5207370;28;20490;-70
2022/01/06 10:01:32;;;;;;;12.60;4.70;;;5.70;99.90;;;5.75;94.36;101387.81;5207649;28;20405;-69
2022/01/06 10:04:04;;;;;;;14.30;4.82;;;5.80;99.90;;;5.75;93.27;101392.97;5207163;28;20076;-70
2022/01/06 10:06:36;;;;;;;15.82;5.50;;;5.80;99.90;;;5.77;92.98;101396.53;5207642;28;20057;-69
2022/01/06 10:09:11;;;;;;;15.35;4.20;;;5.80;99.90;;;5.84;93.18;101402.19;5207353;28;20049;-70
2022/01/06 10:11:44;;;;;;;14.40;5.05;;;5.80;99.90;;;5.91;92.47;101406.09;5207214;28;20050;-70
2022/01/06 10:14:21;;;;;;;18.05;4.72;;;5.90;99.90;;;5.92;92.17;101403.59;5206950;28;20052;-70
2022/01/06 10:16:53;;;;;;;11.52;4.07;;;5.90;99.90;;;5.89;92.26;101399.91;5206925;28;20056;-71
2022/01/06 10:19:26;;;;;;;15.80;4.43;;;5.90;99.90;;;5.83;91.93;101397.84;5207030;28;20045;-73
2022/01/06 10:21:58;;;;;;;11.20;4.15;;;5.90;99.90;;;5.83;91.80;101394.34;5206928;28;20405;-72
2022/01/06 10:24:30;;;;;;;18.55;4.65;;;5.90;99.90;;;5.84;91.92;101389.25;5206368;28;20482;-70
2022/01/06 10:27:06;;;;;;;15.68;4.25;;;5.90;99.90;;;5.88;91.73;101396.44;5206444;28;20057;-70
2022/01/06 10:29:43;;;;;;;19.05;5.07;;;5.90;99.90;;;5.91;91.90;101395.75;5206563;28;20045;-70
2022/01/06 10:32:18;;;;;;;10.55;4.07;;;5.90;99.90;;;5.90;91.29;101391.34;5206227;28;20049;-71
2022/01/06 10:34:53;;;;;;;11.98;4.20;;;5.90;99.90;;;5.90;91.64;101393.94;5206199;28;20045;-70
2022/01/06 10:37:29;;;;;;;17.45;4.57;;;6.00;99.90;;;5.90;91.51;101396.53;5206501;28;20045;-72
2022/01/06 10:40:07;;;;;;;18.55;4.65;;;6.00;99.90;;;5.88;91.33;101406.78;5206856;28;20076;-70
2022/01/06 10:42:42;;;;;;;16.25;3.92;;;5.90;99.90;;;5.87;91.45;101404.09;5206690;28;20135;-70
2022/01/06 10:45:23;;;;;;;10.75;4.20;;;5.90;99.90;;;5.87;91.22;101402.41;5206043;28;20049;-70
2022/01/06 10:47:58;;;;;;;13.73;5.30;;;5.90;99.90;;;5.85;91.45;101397.91;5206762;28;20060;-72